Terminal Aerodrome Forecast
Issued by NWS

Home | Current Version | Previous Version | Text Only | Print | Product List | Glossary On
Versions: 1 2 3 4 5 6 7 8 9 10 11 12 13 14 15 16 17 18 19 20
000
FTUS43 KMQT 281100
TAFCMX
TAF
KCMX 281136Z 2812/2912 22005KT P6SM OVC100
     FM281600 19005KT P6SM -SN OVC050
     FM281900 17004KT 6SM -SN OVC030
     FM282300 14006KT 6SM -SN OVC020
      TEMPO 2900/2904 4SM -SN OVC015
     FM290800 16006KT P6SM OVC020=

USA.gov is the U.S. government's official web portal to all federal, state and local government web resources and services.